sensor_id;sensor_type;location;lat;lon;timestamp;pressure;altitude;pressure_sealevel;temperature;humidity
38614;BME280;24369;49.480;8.488;2022-08-23T00:01:39;100101.34;;;32.66;18.03
38614;BME280;24369;49.480;8.488;2022-08-23T00:04:08;100303.91;;;34.03;17.85
38614;BME280;24369;49.480;8.488;2022-08-23T00:06:34;100295.72;;;33.98;18.10
38614;BME280;24369;49.480;8.488;2022-08-23T00:09:00;100306.31;;;34.09;17.41
38614;BME280;24369;49.480;8.488;2022-08-23T00:11:53;100188.16;;;33.34;17.79
38614;BME280;24369;49.480;8.488;2022-08-23T00:16:45;100154.69;;;33.13;17.62
38614;BME280;24369;49.480;8.488;2022-08-23T00:20:35;100153.91;;;32.92;17.98
38614;BME280;24369;49.480;8.488;2022-08-23T00:23:01;100297.31;;;34.09;17.71
38614;BME280;24369;49.480;8.488;2022-08-23T00:25:27;100296.81;;;34.02;17.51
38614;BME280;24369;49.480;8.488;2022-08-23T00:27:54;100300.25;;;33.73;18.09
38614;BME280;24369;49.480;8.488;2022-08-23T00:30:20;100285.91;;;33.91;17.83
38614;BME280;24369;49.480;8.488;2022-08-23T00:32:45;100158.06;;;32.74;17.97
38614;BME280;24369;49.480;8.488;2022-08-23T00:35:12;100248.84;;;33.75;17.85
38614;BME280;24369;49.480;8.488;2022-08-23T00:37:38;100190.38;;;33.21;17.81
38614;BME280;24369;49.480;8.488;2022-08-23T00:40:07;100226.84;;;33.56;17.72
38614;BME280;24369;49.480;8.488;2022-08-23T00:44:32;100058.56;;;32.56;17.75
38614;BME280;24369;49.480;8.488;2022-08-23T00:47:17;99984.34;;;31.94;17.97
38614;BME280;24369;49.480;8.488;2022-08-23T00:55:22;100266.91;;;33.66;17.94
38614;BME280;24369;49.480;8.488;2022-08-23T00:57:49;100057.25;;;32.48;18.19
38614;BME280;24369;49.480;8.488;2022-08-23T01:00:15;100244.06;;;33.41;18.43
38614;BME280;24369;49.480;8.488;2022-08-23T01:02:42;100286.59;;;33.68;18.33
38614;BME280;24369;49.480;8.488;2022-08-23T01:08:50;100289.28;;;33.78;18.50
38614;BME280;24369;49.480;8.488;2022-08-23T01:11:25;100235.34;;;33.50;18.50
38614;BME280;24369;49.480;8.488;2022-08-23T01:14:29;100171.91;;;32.98;18.83
38614;BME280;24369;49.480;8.488;2022-08-23T01:16:58;100271.63;;;33.55;18.48
38614;BME280;24369;49.480;8.488;2022-08-23T01:19:29;100208.16;;;33.19;18.20
38614;BME280;24369;49.480;8.488;2022-08-23T01:24:44;100247.44;;;33.23;18.84
38614;BME280;24369;49.480;8.488;2022-08-23T01:27:11;100303.63;;;33.34;18.92
38614;BME280;24369;49.480;8.488;2022-08-23T01:31:41;100189.44;;;32.66;18.63
38614;BME280;24369;49.480;8.488;2022-08-23T01:34:09;100075.84;;;31.85;19.01
38614;BME280;24369;49.480;8.488;2022-08-23T01:36:35;100294.88;;;33.32;18.92
38614;BME280;24369;49.480;8.488;2022-08-23T01:39:03;100301.44;;;33.36;18.90
38614;BME280;24369;49.480;8.488;2022-08-23T01:41:28;100306.94;;;33.26;18.94
38614;BME280;24369;49.480;8.488;2022-08-23T01:43:54;100178.84;;;32.55;18.96
38614;BME280;24369;49.480;8.488;2022-08-23T01:46:21;100207.19;;;32.64;18.73
38614;BME280;24369;49.480;8.488;2022-08-23T01:48:48;100305.22;;;33.45;18.95
38614;BME280;24369;49.480;8.488;2022-08-23T01:51:16;100300.59;;;33.46;18.87
38614;BME280;24369;49.480;8.488;2022-08-23T01:53:43;100302.47;;;33.56;18.79
38614;BME280;24369;49.480;8.488;2022-08-23T01:57:22;100089.22;;;32.07;18.80
38614;BME280;24369;49.480;8.488;2022-08-23T01:59:48;100204.44;;;32.79;19.05
38614;BME280;24369;49.480;8.488;2022-08-23T02:02:13;100253.50;;;33.05;19.19
38614;BME280;24369;49.480;8.488;2022-08-23T02:04:40;100332.56;;;33.35;19.14
38614;BME280;24369;49.480;8.488;2022-08-23T02:07:05;100294.91;;;33.22;18.87
38614;BME280;24369;49.480;8.488;2022-08-23T02:09:30;100305.88;;;33.17;19.50
38614;BME280;24369;49.480;8.488;2022-08-23T02:11:56;100255.72;;;32.77;19.39
38614;BME280;24369;49.480;8.488;2022-08-23T02:14:21;100200.66;;;32.34;19.26
38614;BME280;24369;49.480;8.488;2022-08-23T02:16:50;100275.88;;;32.81;19.28
38614;BME280;24369;49.480;8.488;2022-08-23T02:21:53;99998.47;;;31.09;19.27
38614;BME280;24369;49.480;8.488;2022-08-23T02:24:21;100317.88;;;33.21;19.46
38614;BME280;24369;49.480;8.488;2022-08-23T02:26:50;100111.25;;;31.70;19.69
38614;BME280;24369;49.480;8.488;2022-08-23T02:29:17;100111.25;;;31.70;19.63
38614;BME280;24369;49.480;8.488;2022-08-23T02:31:43;100231.75;;;32.59;19.33
38614;BME280;24369;49.480;8.488;2022-08-23T02:34:10;100115.34;;;31.67;19.52
38614;BME280;24369;49.480;8.488;2022-08-23T02:36:36;99989.72;;;30.87;19.93
38614;BME280;24369;49.480;8.488;2022-08-23T02:39:03;100326.13;;;32.95;19.90
38614;BME280;24369;49.480;8.488;2022-08-23T02:41:29;100329.38;;;32.82;20.21
38614;BME280;24369;49.480;8.488;2022-08-23T02:46:32;99842.56;;;29.75;20.53
38614;BME280;24369;49.480;8.488;2022-08-23T02:48:58;100207.13;;;31.82;20.45
38614;BME280;24369;49.480;8.488;2022-08-23T02:51:23;100146.00;;;31.27;20.77
38614;BME280;24369;49.480;8.488;2022-08-23T02:53:49;100330.44;;;32.71;20.49
38614;BME280;24369;49.480;8.488;2022-08-23T02:56:15;100334.00;;;32.77;20.54
38614;BME280;24369;49.480;8.488;2022-08-23T02:58:41;100288.44;;;32.31;20.68
38614;BME280;24369;49.480;8.488;2022-08-23T03:01:17;100195.69;;;31.85;20.59
38614;BME280;24369;49.480;8.488;2022-08-23T03:03:43;100244.50;;;32.02;20.78
38614;BME280;24369;49.480;8.488;2022-08-23T03:06:09;100073.47;;;30.80;20.53
38614;BME280;24369;49.480;8.488;2022-08-23T03:08:34;100063.69;;;30.79;20.89
38614;BME280;24369;49.480;8.488;2022-08-23T03:12:05;100153.84;;;31.18;20.69
38614;BME280;24369;49.480;8.488;2022-08-23T03:14:31;100268.16;;;31.81;21.43
38614;BME280;24369;49.480;8.488;2022-08-23T03:16:56;100251.13;;;31.38;21.80
38614;BME280;24369;49.480;8.488;2022-08-23T03:19:22;100327.47;;;31.64;21.84
38614;BME280;24369;49.480;8.488;2022-08-23T03:21:48;100341.00;;;32.16;22.00
38614;BME280;24369;49.480;8.488;2022-08-23T03:24:14;100160.97;;;30.72;21.97
38614;BME280;24369;49.480;8.488;2022-08-23T03:26:43;100315.50;;;31.65;22.11
38614;BME280;24369;49.480;8.488;2022-08-23T03:29:10;100286.53;;;31.43;22.15
38614;BME280;24369;49.480;8.488;2022-08-23T03:31:35;100286.63;;;31.69;22.20
38614;BME280;24369;49.480;8.488;2022-08-23T03:34:01;100328.00;;;31.66;22.39
38614;BME280;24369;49.480;8.488;2022-08-23T03:38:46;100352.56;;;31.71;22.58
38614;BME280;24369;49.480;8.488;2022-08-23T03:41:12;100356.88;;;31.62;22.66
38614;BME280;24369;49.480;8.488;2022-08-23T03:43:38;100268.88;;;30.98;22.84
38614;BME280;24369;49.480;8.488;2022-08-23T03:46:05;100075.31;;;29.84;22.81
38614;BME280;24369;49.480;8.488;2022-08-23T03:48:30;100304.22;;;31.36;22.53
38614;BME280;24369;49.480;8.488;2022-08-23T03:50:56;100000.97;;;29.26;22.73
38614;BME280;24369;49.480;8.488;2022-08-23T03:53:22;100163.16;;;30.32;23.11
38614;BME280;24369;49.480;8.488;2022-08-23T03:55:49;100171.59;;;30.31;22.56
38614;BME280;24369;49.480;8.488;2022-08-23T03:58:16;100113.78;;;30.08;22.77
38614;BME280;24369;49.480;8.488;2022-08-23T04:03:30;100201.78;;;30.34;22.65
38614;BME280;24369;49.480;8.488;2022-08-23T04:05:56;100325.03;;;31.20;22.71
38614;BME280;24369;49.480;8.488;2022-08-23T04:08:21;100252.50;;;30.88;22.59
38614;BME280;24369;49.480;8.488;2022-08-23T04:10:47;100334.28;;;31.19;23.06
38614;BME280;24369;49.480;8.488;2022-08-23T04:13:12;100256.31;;;30.92;22.52
38614;BME280;24369;49.480;8.488;2022-08-23T04:15:38;100233.25;;;30.62;22.58
38614;BME280;24369;49.480;8.488;2022-08-23T04:18:04;100355.28;;;31.28;22.70
38614;BME280;24369;49.480;8.488;2022-08-23T04:20:29;100356.00;;;31.14;22.93
38614;BME280;24369;49.480;8.488;2022-08-23T04:22:55;100347.84;;;31.14;22.75
38614;BME280;24369;49.480;8.488;2022-08-23T04:25:21;100220.03;;;30.12;23.29
38614;BME280;24369;49.480;8.488;2022-08-23T04:30:21;100410.56;;;31.66;22.69
38614;BME280;24369;49.480;8.488;2022-08-23T04:32:46;99957.88;;;28.75;22.49
38614;BME280;24369;49.480;8.488;2022-08-23T04:35:12;100345.19;;;31.19;22.71
38614;BME280;24369;49.480;8.488;2022-08-23T04:37:37;100391.41;;;31.14;22.14
38614;BME280;24369;49.480;8.488;2022-08-23T04:40:03;100288.50;;;31.05;22.25
38614;BME280;24369;49.480;8.488;2022-08-23T04:42:47;100364.34;;;31.34;22.34
38614;BME280;24369;49.480;8.488;2022-08-23T04:45:12;100389.69;;;31.02;22.99
38614;BME280;24369;49.480;8.488;2022-08-23T04:47:38;100287.63;;;30.62;23.45
38614;BME280;24369;49.480;8.488;2022-08-23T04:50:06;100144.63;;;29.92;22.72
38614;BME280;24369;49.480;8.488;2022-08-23T04:55:01;100295.78;;;30.95;22.58
38614;BME280;24369;49.480;8.488;2022-08-23T04:57:27;100343.72;;;31.43;22.55
38614;BME280;24369;49.480;8.488;2022-08-23T04:59:52;100410.91;;;31.80;22.77
38614;BME280;24369;49.480;8.488;2022-08-23T05:02:17;100381.72;;;31.75;22.20
38614;BME280;24369;49.480;8.488;2022-08-23T05:04:44;100385.81;;;31.73;22.17
38614;BME280;24369;49.480;8.488;2022-08-23T05:07:10;100379.22;;;31.69;22.42
38614;BME280;24369;49.480;8.488;2022-08-23T05:09:35;100192.97;;;30.54;22.58
38614;BME280;24369;49.480;8.488;2022-08-23T05:12:00;100326.25;;;30.97;22.39
38614;BME280;24369;49.480;8.488;2022-08-23T05:14:26;100370.44;;;31.51;21.99
38614;BME280;24369;49.480;8.488;2022-08-23T05:18:00;100439.78;;;31.81;21.99
38614;BME280;24369;49.480;8.488;2022-08-23T05:20:25;100386.34;;;31.75;22.04
38614;BME280;24369;49.480;8.488;2022-08-23T05:22:51;100383.78;;;31.53;21.81
38614;BME280;24369;49.480;8.488;2022-08-23T05:25:16;100404.97;;;31.88;21.74
38614;BME280;24369;49.480;8.488;2022-08-23T05:27:42;100234.00;;;30.90;21.74
38614;BME280;24369;49.480;8.488;2022-08-23T05:30:07;100374.03;;;31.62;21.58
38614;BME280;24369;49.480;8.488;2022-08-23T05:32:33;100107.59;;;29.81;21.76
38614;BME280;24369;49.480;8.488;2022-08-23T05:34:59;100363.38;;;31.55;21.69
38614;BME280;24369;49.480;8.488;2022-08-23T05:37:24;100289.84;;;31.08;21.74
38614;BME280;24369;49.480;8.488;2022-08-23T05:42:29;100247.69;;;30.68;22.10
38614;BME280;24369;49.480;8.488;2022-08-23T05:44:54;100246.44;;;30.44;22.31
38614;BME280;24369;49.480;8.488;2022-08-23T05:47:21;100354.44;;;31.23;22.30
38614;BME280;24369;49.480;8.488;2022-08-23T05:49:47;100269.28;;;30.80;22.05
38614;BME280;24369;49.480;8.488;2022-08-23T05:52:13;100465.81;;;32.04;22.14
38614;BME280;24369;49.480;8.488;2022-08-23T05:54:39;100223.75;;;30.70;22.19
38614;BME280;24369;49.480;8.488;2022-08-23T05:57:04;100157.94;;;30.26;22.17
38614;BME280;24369;49.480;8.488;2022-08-23T05:59:30;100488.47;;;32.20;21.84
38614;BME280;24369;49.480;8.488;2022-08-23T06:01:55;100239.50;;;30.63;21.79
38614;BME280;24369;49.480;8.488;2022-08-23T06:06:58;100370.44;;;31.51;21.39
38614;BME280;24369;49.480;8.488;2022-08-23T06:09:24;100482.56;;;32.38;21.44
38614;BME280;24369;49.480;8.488;2022-08-23T06:11:49;100171.66;;;30.41;21.64
38614;BME280;24369;49.480;8.488;2022-08-23T06:14:15;100490.81;;;32.48;21.51
38614;BME280;24369;49.480;8.488;2022-08-23T06:16:43;100494.00;;;32.40;21.56
38614;BME280;24369;49.480;8.488;2022-08-23T06:19:10;100493.47;;;32.38;21.42
38614;BME280;24369;49.480;8.488;2022-08-23T06:21:38;100485.00;;;32.40;21.53
38614;BME280;24369;49.480;8.488;2022-08-23T06:24:03;100498.47;;;32.52;21.47
38614;BME280;24369;49.480;8.488;2022-08-23T06:26:41;100496.25;;;32.54;21.70
38614;BME280;24369;49.480;8.488;2022-08-23T06:32:25;100323.09;;;31.57;21.50
38614;BME280;24369;49.480;8.488;2022-08-23T06:34:50;100402.28;;;31.98;21.36
38614;BME280;24369;49.480;8.488;2022-08-23T06:37:16;100227.50;;;30.96;21.45
38614;BME280;24369;49.480;8.488;2022-08-23T06:39:41;100445.81;;;32.56;21.04
38614;BME280;24369;49.480;8.488;2022-08-23T06:42:13;100252.53;;;30.98;21.38
38614;BME280;24369;49.480;8.488;2022-08-23T06:44:39;100335.66;;;31.64;21.39
38614;BME280;24369;49.480;8.488;2022-08-23T06:47:05;100505.16;;;33.73;20.59
38614;BME280;24369;49.480;8.488;2022-08-23T06:49:31;100335.72;;;34.67;19.21
38614;BME280;24369;49.480;8.488;2022-08-23T06:51:58;100508.31;;;37.12;17.10
38614;BME280;24369;49.480;8.488;2022-08-23T06:56:22;100459.13;;;36.97;16.63
38614;BME280;24369;49.480;8.488;2022-08-23T06:58:49;100326.25;;;35.42;17.18
38614;BME280;24369;49.480;8.488;2022-08-23T07:01:18;100512.72;;;36.09;17.89
38614;BME280;24369;49.480;8.488;2022-08-23T07:03:45;100511.16;;;35.73;17.77
38614;BME280;24369;49.480;8.488;2022-08-23T07:06:10;100390.44;;;34.23;18.50
38614;BME280;24369;49.480;8.488;2022-08-23T07:08:36;100358.09;;;33.85;18.71
38614;BME280;24369;49.480;8.488;2022-08-23T07:11:02;100425.44;;;34.31;18.82
38614;BME280;24369;49.480;8.488;2022-08-23T07:13:27;100527.34;;;35.06;18.51
38614;BME280;24369;49.480;8.488;2022-08-23T07:15:59;100383.59;;;34.70;18.12
38614;BME280;24369;49.480;8.488;2022-08-23T07:20:06;100513.44;;;38.12;15.87
38614;BME280;24369;49.480;8.488;2022-08-23T07:22:31;100417.94;;;36.97;15.95
38614;BME280;24369;49.480;8.488;2022-08-23T07:24:56;100361.25;;;37.89;14.87
38614;BME280;24369;49.480;8.488;2022-08-23T07:27:22;100531.56;;;38.41;15.18
38614;BME280;24369;49.480;8.488;2022-08-23T07:29:47;100491.09;;;36.88;15.96
38614;BME280;24369;49.480;8.488;2022-08-23T07:32:13;100519.78;;;36.15;16.87
38614;BME280;24369;49.480;8.488;2022-08-23T07:34:39;100525.94;;;35.77;17.62
38614;BME280;24369;49.480;8.488;2022-08-23T07:37:04;100466.69;;;35.82;17.00
38614;BME280;24369;49.480;8.488;2022-08-23T07:39:30;100427.31;;;36.58;16.72
38614;BME280;24369;49.480;8.488;2022-08-23T07:44:33;100548.38;;;36.33;16.88
38614;BME280;24369;49.480;8.488;2022-08-23T07:46:59;100331.59;;;34.30;17.86
38614;BME280;24369;49.480;8.488;2022-08-23T07:49:24;100321.16;;;34.37;18.02
38614;BME280;24369;49.480;8.488;2022-08-23T07:51:50;100553.75;;;35.90;17.89
38614;BME280;24369;49.480;8.488;2022-08-23T07:54:17;100489.72;;;35.81;17.30
38614;BME280;24369;49.480;8.488;2022-08-23T07:56:43;100454.72;;;35.72;17.38
38614;BME280;24369;49.480;8.488;2022-08-23T07:59:11;100423.00;;;34.19;18.61
38614;BME280;24369;49.480;8.488;2022-08-23T08:01:37;100467.13;;;34.57;18.79
38614;BME280;24369;49.480;8.488;2022-08-23T08:04:04;100475.50;;;36.03;17.77
38614;BME280;24369;49.480;8.488;2022-08-23T08:07:30;100577.63;;;35.60;18.57
38614;BME280;24369;49.480;8.488;2022-08-23T08:09:55;100210.34;;;34.74;17.25
38614;BME280;24369;49.480;8.488;2022-08-23T08:12:21;100310.16;;;34.53;17.98
38614;BME280;24369;49.480;8.488;2022-08-23T08:14:47;100407.13;;;35.10;17.99
38614;BME280;24369;49.480;8.488;2022-08-23T08:17:13;100525.88;;;35.83;17.91
38614;BME280;24369;49.480;8.488;2022-08-23T08:19:39;100459.19;;;35.63;17.63
38614;BME280;24369;49.480;8.488;2022-08-23T08:22:06;100373.63;;;35.18;17.77
38614;BME280;24369;49.480;8.488;2022-08-23T08:24:32;100429.84;;;35.40;17.75
38614;BME280;24369;49.480;8.488;2022-08-23T08:26:58;100546.09;;;37.02;17.18
38614;BME280;24369;49.480;8.488;2022-08-23T08:31:26;100302.06;;;36.11;16.85
38614;BME280;24369;49.480;8.488;2022-08-23T08:33:51;100334.84;;;36.02;16.91
38614;BME280;24369;49.480;8.488;2022-08-23T08:36:39;100557.00;;;36.88;17.42
38614;BME280;24369;49.480;8.488;2022-08-23T08:39:09;100556.75;;;37.41;16.97
38614;BME280;24369;49.480;8.488;2022-08-23T08:41:45;100552.16;;;36.61;17.49
38614;BME280;24369;49.480;8.488;2022-08-23T08:44:26;100490.38;;;37.01;17.15
38614;BME280;24369;49.480;8.488;2022-08-23T08:46:57;100358.53;;;37.61;16.20
38614;BME280;24369;49.480;8.488;2022-08-23T08:49:38;100501.34;;;39.22;15.45
38614;BME280;24369;49.480;8.488;2022-08-23T08:54:46;100566.22;;;47.35;9.80
38614;BME280;24369;49.480;8.488;2022-08-23T08:57:16;100566.28;;;48.31;8.86
38614;BME280;24369;49.480;8.488;2022-08-23T09:00:04;100445.19;;;46.59;9.61
38614;BME280;24369;49.480;8.488;2022-08-23T09:02:33;100470.78;;;48.55;8.04
38614;BME280;24369;49.480;8.488;2022-08-23T09:05:01;100402.81;;;48.14;8.15
38614;BME280;24369;49.480;8.488;2022-08-23T09:07:45;100553.25;;;50.36;8.27
38614;BME280;24369;49.480;8.488;2022-08-23T09:10:45;100557.97;;;51.01;6.76
38614;BME280;24369;49.480;8.488;2022-08-23T09:18:50;100585.34;;;46.24;9.60
38614;BME280;24369;49.480;8.488;2022-08-23T09:21:16;100502.06;;;42.28;11.85
38614;BME280;24369;49.480;8.488;2022-08-23T09:23:44;100566.56;;;40.42;13.58
38614;BME280;24369;49.480;8.488;2022-08-23T09:26:22;100552.91;;;40.46;12.88
38614;BME280;24369;49.480;8.488;2022-08-23T09:28:52;100409.00;;;38.79;14.25
38614;BME280;24369;49.480;8.488;2022-08-23T09:34:01;100553.38;;;38.23;15.54
38614;BME280;24369;49.480;8.488;2022-08-23T09:36:31;100504.31;;;37.24;16.32
38614;BME280;24369;49.480;8.488;2022-08-23T09:38:59;100559.03;;;37.85;15.94
38614;BME280;24369;49.480;8.488;2022-08-23T09:43:42;100478.13;;;37.45;15.53
38614;BME280;24369;49.480;8.488;2022-08-23T09:46:08;100433.06;;;37.13;15.94
38614;BME280;24369;49.480;8.488;2022-08-23T09:48:38;100549.19;;;38.53;15.65
38614;BME280;24369;49.480;8.488;2022-08-23T09:51:31;100559.06;;;37.99;16.17
38614;BME280;24369;49.480;8.488;2022-08-23T09:54:28;100553.31;;;37.82;16.03
38614;BME280;24369;49.480;8.488;2022-08-23T09:56:53;100400.44;;;36.74;16.13
38614;BME280;24369;49.480;8.488;2022-08-23T10:01:51;100542.38;;;38.09;15.83
38614;BME280;24369;49.480;8.488;2022-08-23T10:06:30;100407.44;;;36.66;16.02
38614;BME280;24369;49.480;8.488;2022-08-23T10:08:58;100547.25;;;37.52;16.54
38614;BME280;24369;49.480;8.488;2022-08-23T10:11:32;100387.06;;;36.35;16.79
38614;BME280;24369;49.480;8.488;2022-08-23T10:13:58;100325.13;;;35.91;17.10
38614;BME280;24369;49.480;8.488;2022-08-23T10:17:06;100479.97;;;37.17;16.41
38614;BME280;24369;49.480;8.488;2022-08-23T10:22:37;100396.63;;;36.56;16.82
38614;BME280;24369;49.480;8.488;2022-08-23T10:25:19;100510.88;;;37.23;16.54
38614;BME280;24369;49.480;8.488;2022-08-23T10:30:16;100446.13;;;36.84;16.59
38614;BME280;24369;49.480;8.488;2022-08-23T10:33:04;100469.09;;;37.39;16.35
38614;BME280;24369;49.480;8.488;2022-08-23T10:36:28;100487.28;;;37.22;16.29
38614;BME280;24369;49.480;8.488;2022-08-23T10:41:58;100520.16;;;37.92;16.36
38614;BME280;24369;49.480;8.488;2022-08-23T10:44:39;100516.38;;;38.16;15.82
38614;BME280;24369;49.480;8.488;2022-08-23T10:49:40;100515.44;;;36.57;17.12
38614;BME280;24369;49.480;8.488;2022-08-23T10:54:15;100421.66;;;36.31;16.65
38614;BME280;24369;49.480;8.488;2022-08-23T10:56:43;100457.41;;;37.01;16.45
38614;BME280;24369;49.480;8.488;2022-08-23T10:59:24;100496.66;;;37.21;16.53
38614;BME280;24369;49.480;8.488;2022-08-23T11:02:19;100499.88;;;37.88;16.45
38614;BME280;24369;49.480;8.488;2022-08-23T11:05:04;100501.06;;;37.82;16.25
38614;BME280;24369;49.480;8.488;2022-08-23T11:07:38;100501.34;;;37.67;16.31
38614;BME280;24369;49.480;8.488;2022-08-23T11:10:14;100479.59;;;37.05;16.47
38614;BME280;24369;49.480;8.488;2022-08-23T11:12:54;100495.06;;;37.80;16.12
38614;BME280;24369;49.480;8.488;2022-08-23T11:18:06;100495.44;;;37.59;15.37
38614;BME280;24369;49.480;8.488;2022-08-23T11:23:49;100466.53;;;37.76;15.37
38614;BME280;24369;49.480;8.488;2022-08-23T11:28:47;100196.91;;;35.45;15.48
38614;BME280;24369;49.480;8.488;2022-08-23T11:44:56;100397.50;;;36.70;15.62
38614;BME280;24369;49.480;8.488;2022-08-23T11:47:42;100464.34;;;37.92;15.36
38614;BME280;24369;49.480;8.488;2022-08-23T11:50:25;100447.81;;;37.78;15.17
38614;BME280;24369;49.480;8.488;2022-08-23T12:02:28;100476.63;;;38.86;14.44
38614;BME280;24369;49.480;8.488;2022-08-23T12:04:57;100447.28;;;38.17;14.71
38614;BME280;24369;49.480;8.488;2022-08-23T12:12:11;100471.78;;;38.05;14.68
38614;BME280;24369;49.480;8.488;2022-08-23T12:19:40;100365.97;;;37.61;14.68
38614;BME280;24369;49.480;8.488;2022-08-23T12:22:18;100436.53;;;37.93;14.54
38614;BME280;24369;49.480;8.488;2022-08-23T12:24:51;100394.63;;;38.10;14.74
38614;BME280;24369;49.480;8.488;2022-08-23T12:32:36;100459.31;;;39.16;14.38
38614;BME280;24369;49.480;8.488;2022-08-23T12:37:47;100312.47;;;38.53;13.87
38614;BME280;24369;49.480;8.488;2022-08-23T12:40:27;100463.09;;;38.98;13.87
38614;BME280;24369;49.480;8.488;2022-08-23T12:43:05;100452.00;;;39.12;13.87
38614;BME280;24369;49.480;8.488;2022-08-23T12:45:42;100314.81;;;38.01;14.03
38614;BME280;24369;49.480;8.488;2022-08-23T12:48:12;100461.41;;;39.11;13.58
38614;BME280;24369;49.480;8.488;2022-08-23T12:50:40;100340.38;;;37.88;13.71
38614;BME280;24369;49.480;8.488;2022-08-23T12:56:14;100443.88;;;38.84;13.77
38614;BME280;24369;49.480;8.488;2022-08-23T12:58:54;100465.28;;;39.10;13.49
38614;BME280;24369;49.480;8.488;2022-08-23T13:01:24;100259.56;;;38.12;13.54
38614;BME280;24369;49.480;8.488;2022-08-23T13:03:57;100340.28;;;38.74;13.32
38614;BME280;24369;49.480;8.488;2022-08-23T13:06:29;100426.94;;;39.53;13.41
38614;BME280;24369;49.480;8.488;2022-08-23T13:09:19;100439.28;;;39.24;13.82
38614;BME280;24369;49.480;8.488;2022-08-23T13:11:47;100443.63;;;39.17;13.31
38614;BME280;24369;49.480;8.488;2022-08-23T13:16:46;100381.69;;;38.83;13.45
38614;BME280;24369;49.480;8.488;2022-08-23T13:22:19;100367.13;;;38.91;13.46
38614;BME280;24369;49.480;8.488;2022-08-23T13:25:32;100432.22;;;39.10;13.33
38614;BME280;24369;49.480;8.488;2022-08-23T13:32:43;100394.81;;;38.86;13.19
38614;BME280;24369;49.480;8.488;2022-08-23T13:37:58;100318.44;;;38.55;13.39
38614;BME280;24369;49.480;8.488;2022-08-23T13:40:30;100380.16;;;38.54;13.38
38614;BME280;24369;49.480;8.488;2022-08-23T13:45:49;100406.44;;;39.28;13.25
38614;BME280;24369;49.480;8.488;2022-08-23T13:48:24;100395.91;;;39.08;13.35
38614;BME280;24369;49.480;8.488;2022-08-23T13:50:51;100408.72;;;39.03;13.22
38614;BME280;24369;49.480;8.488;2022-08-23T13:53:17;100418.44;;;39.32;12.95
38614;BME280;24369;49.480;8.488;2022-08-23T13:55:52;100404.81;;;39.27;13.18
38614;BME280;24369;49.480;8.488;2022-08-23T13:58:26;100403.28;;;39.61;12.88
38614;BME280;24369;49.480;8.488;2022-08-23T14:00:53;100220.59;;;37.96;13.47
38614;BME280;24369;49.480;8.488;2022-08-23T14:03:19;100400.63;;;39.38;13.05
38614;BME280;24369;49.480;8.488;2022-08-23T14:05:44;100399.81;;;39.38;12.87
38614;BME280;24369;49.480;8.488;2022-08-23T14:09:26;100402.84;;;38.24;13.80
38614;BME280;24369;49.480;8.488;2022-08-23T14:11:54;100310.53;;;38.18;13.20
38614;BME280;24369;49.480;8.488;2022-08-23T14:14:21;100208.59;;;37.55;13.27
38614;BME280;24369;49.480;8.488;2022-08-23T14:16:47;100150.31;;;37.31;13.19
38614;BME280;24369;49.480;8.488;2022-08-23T14:19:12;100315.19;;;38.08;13.33
38614;BME280;24369;49.480;8.488;2022-08-23T14:21:38;100403.69;;;39.06;12.93
38614;BME280;24369;49.480;8.488;2022-08-23T14:24:03;100396.19;;;38.97;13.25
38614;BME280;24369;49.480;8.488;2022-08-23T14:26:29;100365.56;;;38.99;12.63
38614;BME280;24369;49.480;8.488;2022-08-23T14:28:54;100257.06;;;38.46;12.64
38614;BME280;24369;49.480;8.488;2022-08-23T14:33:09;100118.88;;;37.37;13.09
38614;BME280;24369;49.480;8.488;2022-08-23T14:35:34;100352.91;;;38.98;12.62
38614;BME280;24369;49.480;8.488;2022-08-23T14:38:00;100278.13;;;38.51;12.67
38614;BME280;24369;49.480;8.488;2022-08-23T14:40:25;100104.78;;;37.38;12.83
38614;BME280;24369;49.480;8.488;2022-08-23T14:42:52;100398.25;;;39.23;12.79
38614;BME280;24369;49.480;8.488;2022-08-23T14:45:19;100341.34;;;38.65;12.97
38614;BME280;24369;49.480;8.488;2022-08-23T14:47:45;100373.06;;;39.07;12.92
38614;BME280;24369;49.480;8.488;2022-08-23T14:50:12;100386.22;;;39.41;12.54
38614;BME280;24369;49.480;8.488;2022-08-23T14:52:42;100295.88;;;38.22;12.85
38614;BME280;24369;49.480;8.488;2022-08-23T14:57:44;100358.25;;;38.49;12.82
38614;BME280;24369;49.480;8.488;2022-08-23T15:00:10;100399.84;;;39.15;12.55
38614;BME280;24369;49.480;8.488;2022-08-23T15:02:43;100364.44;;;39.00;12.56
38614;BME280;24369;49.480;8.488;2022-08-23T15:05:11;100287.53;;;38.58;12.40
38614;BME280;24369;49.480;8.488;2022-08-23T15:07:36;100343.59;;;39.16;12.63
38614;BME280;24369;49.480;8.488;2022-08-23T15:10:02;100336.44;;;39.46;12.53
38614;BME280;24369;49.480;8.488;2022-08-23T15:12:29;100230.78;;;38.71;12.02
38614;BME280;24369;49.480;8.488;2022-08-23T15:14:54;100237.69;;;38.91;12.63
38614;BME280;24369;49.480;8.488;2022-08-23T15:17:20;100292.78;;;38.91;12.41
38614;BME280;24369;49.480;8.488;2022-08-23T15:19:45;100392.19;;;39.83;12.41
38614;BME280;24369;49.480;8.488;2022-08-23T15:23:41;100141.88;;;37.86;12.58
38614;BME280;24369;49.480;8.488;2022-08-23T15:26:08;100389.66;;;39.56;12.32
38614;BME280;24369;49.480;8.488;2022-08-23T15:28:34;100235.63;;;38.66;12.34
38614;BME280;24369;49.480;8.488;2022-08-23T15:31:00;100384.38;;;39.28;12.42
38614;BME280;24369;49.480;8.488;2022-08-23T15:33:26;100378.59;;;39.38;12.57
38614;BME280;24369;49.480;8.488;2022-08-23T15:35:52;100376.78;;;39.34;12.49
38614;BME280;24369;49.480;8.488;2022-08-23T15:38:20;100383.34;;;39.55;12.09
38614;BME280;24369;49.480;8.488;2022-08-23T15:40:48;100369.28;;;39.03;12.15
38614;BME280;24369;49.480;8.488;2022-08-23T15:43:14;100334.69;;;39.11;12.25